Aeroporto :
LOGIN :

Iscrizione | Disclaimer

   EN    FR    IT 

 










Sommario :    VFR   VFR Marginale   IFR   IFR Intensivo   IFR Molto Intensivo
Visibilità : 
Base nubi : 
>= 8 km
>= 3000ft
5 / 8 km
1000 / 3000 ft
1500m / 5 km
500 / 1000 ft
800 / 1500m
200 / 500 ft
< 800m
< 200 ft
Simboli :   Temporali  Nebbia  Neve Forte  Precipitazioni Forti  Vento > 20 kt
SIGMETs :   Varie  Temporali  Ghiacco  Turbolenza  Onda orograficha  Ceneri Vulcaniche







- Altitudine del aeroporto : 270 ft
- Codice IATA : OXF
- Carte del aeroporto


EGTK - Oxford (Kidlington)

ULTIMO METAR :
  • 201620Z 03005KT CAVOK 22/06 Q1028

METARs OBSOLETI :
  • 201550Z 08005KT CAVOK 22/08 Q1028
  • 201520Z 04004KT CAVOK 22/06 Q1028
  • 201450Z 07006KT CAVOK 22/07 Q1029
  • 201420Z 08004KT CAVOK 22/06 Q1029
  • 201350Z 02007KT 360V070 CAVOK 22/06 Q1029

TAF TAF EGTK
Valido dal 20 a 15 ore il 20 a 22 ore UTC


201358Z 2015/2022 07007KT CAVOK
PROB30 2020/2022 9000
Nessun NOTAM noto per questo aeroporto.



MetMap, La meteo Aeronautica in un colpo d'occhio ! - Copyright ORBIFLY Dicembre 2007 - Disclaimer

ORBIFLY MET'MAP TEAM :

Programmazione e sviluppo : Alexandra Zaïnal
Concezione e sviluppo : Baudouin d'Aumeries
Co-Programmazione e sviluppo : Marc-Olivier Méhu
Supporto tecnico e logistico : Manuel Goepfert
Aiuto per la traduzione : Arnaldo La Scala

Contatto : metmap@orbifly.com




FONTI E CREDITI :

   NOAA